createdAt,value
2023-03-27T00:01:16.217Z,98774.91
2023-03-27T00:04:31.797Z,98769.09
2023-03-27T00:07:40.818Z,98768.63
2023-03-27T00:11:02.799Z,98764.38
2023-03-27T00:14:17.821Z,98758.09
2023-03-27T00:17:33.898Z,98753.22
2023-03-27T00:20:43.655Z,98740.47
2023-03-27T00:23:59.823Z,98740.16
2023-03-27T00:27:01.726Z,98737.78
2023-03-27T00:30:17.813Z,98733.38
2023-03-27T00:33:26.818Z,98739.41
2023-03-27T00:36:35.441Z,98729.63
2023-03-27T00:39:43.829Z,98718.91
2023-03-27T00:42:52.718Z,98717.34
2023-03-27T00:46:09.837Z,98719.09
2023-03-27T00:49:18.443Z,98714.34
2023-03-27T00:52:27.877Z,98700.97
2023-03-27T00:55:38.917Z,98687.31
2023-03-27T00:58:58.827Z,98693.62
2023-03-27T01:02:09.863Z,98692.97
2023-03-27T01:05:19.032Z,98680.72
2023-03-27T01:08:36.815Z,98671.09
2023-03-27T01:12:04.822Z,98664.38
2023-03-27T01:15:39.635Z,98657.59
2023-03-27T01:18:54.815Z,98645.19
2023-03-27T01:22:38.429Z,98636.19
2023-03-27T01:26:17.811Z,98645.50
2023-03-27T01:29:56.824Z,98634.81
2023-03-27T01:33:27.222Z,98630.84
2023-03-27T01:37:05.830Z,98626.00
2023-03-27T01:40:24.814Z,98623.94
2023-03-27T01:43:45.808Z,98616.38
2023-03-27T01:47:08.809Z,98631.97
2023-03-27T01:50:38.836Z,98625.66
2023-03-27T01:53:52.681Z,98624.41
2023-03-27T01:57:26.829Z,98617.97
2023-03-27T02:00:51.649Z,98620.66
2023-03-27T02:04:09.829Z,98608.91
2023-03-27T02:07:26.210Z,98612.81
2023-03-27T02:10:41.836Z,98612.03
2023-03-27T02:14:15.831Z,98610.91
2023-03-27T02:17:26.863Z,98610.62
2023-03-27T02:20:46.809Z,98606.81
2023-03-27T02:23:54.840Z,98598.16
2023-03-27T02:27:17.704Z,98598.00
2023-03-27T02:31:05.745Z,98598.66
2023-03-27T02:34:50.734Z,98575.69
2023-03-27T02:38:23.854Z,98550.72
2023-03-27T02:41:55.856Z,98542.41
2023-03-27T02:45:33.670Z,98522.59
2023-03-27T02:48:48.847Z,98521.34
2023-03-27T02:52:02.509Z,98514.41
2023-03-27T02:55:22.860Z,98494.66
2023-03-27T02:58:45.837Z,98512.56
2023-03-27T03:02:01.897Z,98506.78
2023-03-27T03:05:17.838Z,98500.47
2023-03-27T03:08:33.872Z,98488.81
2023-03-27T03:11:58.844Z,98490.25
2023-03-27T03:15:20.848Z,98492.13
2023-03-27T03:18:29.822Z,98491.63
2023-03-27T03:21:38.498Z,98492.25
2023-03-27T03:24:46.844Z,98493.81
2023-03-27T03:27:55.437Z,98492.72
2023-03-27T03:34:19.565Z,98482.22
2023-03-27T03:37:34.821Z,98493.19
2023-03-27T03:40:44.842Z,98492.06
2023-03-27T03:43:53.726Z,98488.75
2023-03-27T03:47:01.835Z,98487.69
2023-03-27T03:50:17.836Z,98484.50
2023-03-27T03:53:27.859Z,98479.50
2023-03-27T03:56:42.858Z,98479.94
2023-03-27T03:59:44.897Z,98477.16
2023-03-27T04:03:00.941Z,98480.00
2023-03-27T04:06:09.449Z,98469.94
2023-03-27T04:09:23.835Z,98471.25
2023-03-27T04:12:38.847Z,98462.31
2023-03-27T04:15:46.833Z,98471.75
2023-03-27T04:19:01.839Z,98477.72
2023-03-27T04:22:03.925Z,98461.25
2023-03-27T04:25:20.867Z,98476.00
2023-03-27T04:28:30.483Z,98468.78
2023-03-27T04:31:38.889Z,98471.59
2023-03-27T04:34:54.870Z,98467.66
2023-03-27T04:38:09.872Z,98461.06
2023-03-27T04:41:25.836Z,98465.03
2023-03-27T04:44:27.817Z,98471.94
2023-03-27T04:47:44.943Z,98460.31
2023-03-27T04:50:59.806Z,98462.37
2023-03-27T04:54:14.874Z,98451.06
2023-03-27T04:57:16.893Z,98461.94
2023-03-27T05:00:32.862Z,98455.34
2023-03-27T05:03:35.303Z,98452.78
2023-03-27T05:06:49.839Z,98448.56
2023-03-27T05:09:58.704Z,98441.84
2023-03-27T05:13:07.864Z,98434.16
2023-03-27T05:16:23.169Z,98420.06
2023-03-27T05:19:37.857Z,98437.50
2023-03-27T05:22:46.850Z,98433.25
2023-03-27T05:25:59.730Z,98431.03
2023-03-27T05:29:15.817Z,98409.25
2023-03-27T05:32:17.927Z,98421.94
2023-03-27T05:35:33.955Z,98423.66
2023-03-27T05:38:45.442Z,98421.78
2023-03-27T05:41:59.830Z,98424.91
2023-03-27T05:45:15.835Z,98420.03
2023-03-27T05:48:30.901Z,98412.81
2023-03-27T05:51:46.855Z,98411.88
2023-03-27T05:54:55.841Z,98399.00
2023-03-27T05:58:05.308Z,98403.38
2023-03-27T06:01:13.846Z,98407.66
2023-03-27T06:04:22.607Z,98401.03
2023-03-27T06:07:30.822Z,98398.38
2023-03-27T06:10:42.418Z,98407.00
2023-03-27T06:13:50.852Z,98403.06
2023-03-27T06:17:06.861Z,98398.53
2023-03-27T06:20:21.841Z,98393.66
2023-03-27T06:23:36.850Z,98391.16
2023-03-27T06:26:38.801Z,98341.78
2023-03-27T06:29:53.879Z,98401.31
2023-03-27T06:32:58.117Z,98392.22
2023-03-27T06:36:13.899Z,98396.00
2023-03-27T06:39:28.857Z,98387.66
2023-03-27T06:42:33.391Z,98389.84
2023-03-27T06:45:50.833Z,98390.47
2023-03-27T06:48:59.507Z,98388.31
2023-03-27T06:52:07.864Z,98388.59
2023-03-27T06:55:24.891Z,98385.94
2023-03-27T06:58:27.141Z,98390.78
2023-03-27T07:01:41.894Z,98387.50
2023-03-27T07:05:01.538Z,98172.59
2023-03-27T07:11:28.960Z,98393.03
2023-03-27T07:14:51.882Z,98390.72
2023-03-27T07:18:09.870Z,98403.06
2023-03-27T07:21:24.858Z,98404.47
2023-03-27T07:24:27.006Z,98409.00
2023-03-27T07:27:45.083Z,98404.47
2023-03-27T07:30:53.624Z,98399.50
2023-03-27T07:34:10.314Z,98405.38
2023-03-27T07:37:18.559Z,98407.50
2023-03-27T07:40:40.467Z,98412.84
2023-03-27T07:43:55.886Z,98400.44
2023-03-27T07:47:10.856Z,98415.00
2023-03-27T07:50:21.830Z,98419.72
2023-03-27T07:53:32.670Z,98423.50
2023-03-27T07:56:42.792Z,98413.63
2023-03-27T07:59:57.908Z,98419.28
2023-03-27T08:03:11.078Z,98425.72
2023-03-27T08:06:27.869Z,98413.94
2023-03-27T08:09:36.646Z,98407.06
2023-03-27T08:12:45.846Z,98415.87
2023-03-27T08:16:17.911Z,98414.59
2023-03-27T08:19:19.961Z,98422.16
2023-03-27T08:22:34.858Z,98427.31
2023-03-27T08:25:56.028Z,98432.66
2023-03-27T08:29:04.746Z,98428.59
2023-03-27T08:32:19.860Z,98416.22
2023-03-27T08:35:28.476Z,98442.09
2023-03-27T08:38:42.849Z,98439.75
2023-03-27T08:42:01.867Z,98451.38
2023-03-27T08:45:51.949Z,98449.16
2023-03-27T08:49:06.028Z,98460.75
2023-03-27T08:52:23.864Z,98466.59
2023-03-27T08:55:37.083Z,98464.56
2023-03-27T08:58:52.892Z,98462.97
2023-03-27T09:02:43.059Z,98459.69
2023-03-27T09:05:57.679Z,98463.44
2023-03-27T09:09:30.192Z,98458.88
2023-03-27T09:13:09.874Z,98451.97
2023-03-27T09:16:26.468Z,98469.72
2023-03-27T09:19:47.865Z,98467.19
2023-03-27T09:23:00.928Z,98463.59
2023-03-27T09:26:17.026Z,98468.28
2023-03-27T09:29:32.843Z,98472.84
2023-03-27T09:32:35.060Z,98474.09
2023-03-27T09:35:49.864Z,98471.56
2023-03-27T09:39:11.921Z,98476.78
2023-03-27T09:42:26.854Z,98475.19
2023-03-27T09:45:38.266Z,98483.53
2023-03-27T09:49:07.272Z,98491.22
2023-03-27T09:52:35.756Z,98481.34
2023-03-27T09:56:04.840Z,98499.72
2023-03-27T09:59:38.364Z,98502.06
2023-03-27T10:02:52.901Z,98514.94
2023-03-27T10:06:19.907Z,98512.56
2023-03-27T10:09:40.936Z,98514.31
2023-03-27T10:12:50.859Z,98517.28
2023-03-27T10:16:07.906Z,98517.94
2023-03-27T10:19:34.591Z,98515.25
2023-03-27T10:22:57.912Z,98525.28
2023-03-27T10:26:17.916Z,98522.47
2023-03-27T10:29:32.668Z,98527.81
2023-03-27T10:32:50.962Z,98538.63
2023-03-27T10:36:00.451Z,98537.19
2023-03-27T10:39:16.867Z,98536.44
2023-03-27T10:42:40.969Z,98532.97
2023-03-27T10:45:57.757Z,98545.00
2023-03-27T10:49:24.880Z,98530.81
2023-03-27T10:52:58.861Z,98544.09
2023-03-27T10:56:52.179Z,98550.28
2023-03-27T11:00:07.360Z,98547.25
2023-03-27T11:03:22.884Z,98540.13
2023-03-27T11:06:44.967Z,98553.28
2023-03-27T11:10:14.012Z,98550.81
2023-03-27T11:13:38.957Z,98556.09
2023-03-27T11:17:01.938Z,98551.53
2023-03-27T11:20:30.744Z,98546.81
2023-03-27T11:23:50.066Z,98556.38
2023-03-27T11:27:23.847Z,98564.38
2023-03-27T11:30:55.038Z,98573.19
2023-03-27T11:38:21.849Z,98572.12
2023-03-27T11:41:30.853Z,98578.88
2023-03-27T11:44:48.471Z,98572.28
2023-03-27T11:48:01.277Z,98535.81
2023-03-27T11:51:25.860Z,98570.66
2023-03-27T11:54:56.082Z,98576.31
2023-03-27T11:58:46.874Z,98585.25
2023-03-27T12:02:18.840Z,98586.56
2023-03-27T12:05:56.837Z,98574.63
2023-03-27T12:09:34.858Z,98597.28
2023-03-27T12:13:08.881Z,98590.87
2023-03-27T12:17:20.888Z,98588.06
2023-03-27T12:20:53.030Z,98587.44
2023-03-27T12:24:31.845Z,98596.06
2023-03-27T12:27:58.952Z,98582.41
2023-03-27T12:31:03.954Z,98616.66
2023-03-27T12:34:55.876Z,98611.94
2023-03-27T12:38:22.691Z,98616.22
2023-03-27T12:41:38.943Z,98620.94
2023-03-27T12:45:29.902Z,98632.84
2023-03-27T12:49:13.863Z,98633.47
2023-03-27T12:52:15.938Z,98634.75
2023-03-27T12:55:42.856Z,98649.97
2023-03-27T12:58:49.338Z,98648.56
2023-03-27T13:02:10.538Z,98670.09
2023-03-27T13:06:25.255Z,98663.31
2023-03-27T13:10:03.370Z,98673.72
2023-03-27T13:13:56.551Z,98675.37
2023-03-27T13:17:31.332Z,98696.53
2023-03-27T13:25:00.911Z,98714.91
2023-03-27T13:28:30.854Z,98729.28
2023-03-27T13:31:52.076Z,98730.81
2023-03-27T13:35:15.078Z,98740.72
2023-03-27T13:38:56.136Z,98748.91
2023-03-27T13:42:17.857Z,98776.31
2023-03-27T13:45:38.962Z,98772.84
2023-03-27T13:49:21.885Z,98777.56
2023-03-27T13:52:39.864Z,98778.78
2023-03-27T13:55:57.054Z,98779.69
2023-03-27T13:59:25.137Z,98804.53
2023-03-27T14:03:20.914Z,98809.28
2023-03-27T14:07:15.907Z,98835.50
2023-03-27T14:10:50.968Z,98848.31
2023-03-27T14:14:25.852Z,98863.72
2023-03-27T14:18:26.576Z,98880.66
2023-03-27T14:22:01.853Z,98884.56
2023-03-27T14:25:16.913Z,98902.84
2023-03-27T14:28:59.863Z,98914.72
2023-03-27T14:32:21.956Z,98936.59
2023-03-27T14:35:38.909Z,98928.16
2023-03-27T14:38:56.903Z,98933.94
2023-03-27T14:42:16.135Z,98961.31
2023-03-27T14:45:29.911Z,98967.94
2023-03-27T14:48:49.936Z,98981.72
2023-03-27T14:52:05.883Z,98967.94
2023-03-27T14:55:16.173Z,99000.75
2023-03-27T14:58:31.891Z,98989.34
2023-03-27T15:01:48.259Z,99004.00
2023-03-27T15:05:03.798Z,99015.22
2023-03-27T15:08:19.052Z,99020.47
2023-03-27T15:11:40.964Z,99012.84
2023-03-27T15:14:56.927Z,99044.56
2023-03-27T15:18:24.886Z,99037.53
2023-03-27T15:21:52.020Z,99065.56
2023-03-27T15:25:13.318Z,99063.75
2023-03-27T15:28:34.864Z,99067.84
2023-03-27T15:31:37.608Z,99084.38
2023-03-27T15:35:03.953Z,99104.13
2023-03-27T15:38:14.868Z,99092.28
2023-03-27T15:41:40.928Z,99093.03
2023-03-27T15:44:49.904Z,99122.88
2023-03-27T15:48:22.858Z,99136.16
2023-03-27T15:51:31.524Z,99127.16
2023-03-27T15:54:42.070Z,99144.81
2023-03-27T15:57:57.241Z,99128.38
2023-03-27T16:01:18.750Z,99171.72
2023-03-27T16:04:47.152Z,99179.94
2023-03-27T16:07:55.656Z,99186.00
2023-03-27T16:11:05.164Z,99161.59
2023-03-27T16:14:50.106Z,99218.78
2023-03-27T16:18:03.520Z,99226.47
2023-03-27T16:21:20.293Z,99254.87
2023-03-27T16:24:22.677Z,99260.72
2023-03-27T16:27:45.343Z,99262.31
2023-03-27T16:31:01.284Z,99274.75
2023-03-27T16:34:11.953Z,99300.25
2023-03-27T16:37:37.842Z,99287.56
2023-03-27T16:40:55.317Z,99304.50
2023-03-27T16:43:57.639Z,99322.81
2023-03-27T16:47:13.880Z,99323.59
2023-03-27T16:50:21.932Z,99347.78
2023-03-27T16:53:37.855Z,99337.16
2023-03-27T16:56:54.905Z,99353.84
2023-03-27T17:00:11.828Z,99356.53
2023-03-27T17:03:21.921Z,99374.31
2023-03-27T17:06:30.484Z,99381.72
2023-03-27T17:09:46.869Z,99378.53
2023-03-27T17:12:55.861Z,99396.31
2023-03-27T17:16:11.469Z,99400.06
2023-03-27T17:19:20.824Z,99405.63
2023-03-27T17:22:29.513Z,99401.38
2023-03-27T17:25:38.269Z,99424.50
2023-03-27T17:28:52.884Z,99421.84
2023-03-27T17:32:08.067Z,99453.13
2023-03-27T17:35:16.978Z,99441.75
2023-03-27T17:38:26.256Z,99451.84
2023-03-27T17:41:41.162Z,99460.59
2023-03-27T17:44:43.836Z,99446.53
2023-03-27T17:47:59.879Z,99466.94
2023-03-27T17:51:17.349Z,99471.72
2023-03-27T17:54:29.853Z,99458.72
2023-03-27T17:57:47.440Z,99498.22
2023-03-27T18:01:18.137Z,99495.06
2023-03-27T18:04:28.442Z,99488.69
2023-03-27T18:07:38.446Z,99513.63
2023-03-27T18:10:57.336Z,99531.09
2023-03-27T18:13:59.720Z,99516.78
2023-03-27T18:17:16.302Z,99549.66
2023-03-27T18:20:28.366Z,99543.84
2023-03-27T18:23:46.634Z,99557.59
2023-03-27T18:26:55.937Z,99518.34
2023-03-27T18:30:05.352Z,99560.47
2023-03-27T18:33:21.367Z,99558.87
2023-03-27T18:36:24.214Z,99540.06
2023-03-27T18:39:39.367Z,99564.44
2023-03-27T18:42:55.299Z,99549.06
2023-03-27T18:46:06.319Z,99553.81
2023-03-27T18:49:25.167Z,99578.75
2023-03-27T18:52:35.306Z,99593.34
2023-03-27T18:55:52.622Z,99599.16
2023-03-27T18:59:08.370Z,99595.19
2023-03-27T19:02:17.343Z,99603.41
2023-03-27T19:05:27.415Z,99606.03
2023-03-27T19:08:43.323Z,99618.19
2023-03-27T19:11:52.722Z,99624.56
2023-03-27T19:15:19.454Z,99628.03
2023-03-27T19:18:35.846Z,99638.34
2023-03-27T19:21:47.412Z,99639.94
2023-03-27T19:25:03.277Z,99638.84
2023-03-27T19:28:20.841Z,99649.44
2023-03-27T19:31:37.317Z,99648.41
2023-03-27T19:34:47.278Z,99657.37
2023-03-27T19:37:55.875Z,99644.94
2023-03-27T19:41:09.446Z,99656.34
2023-03-27T19:44:24.859Z,99662.69
2023-03-27T19:47:35.595Z,99664.00
2023-03-27T19:50:58.109Z,99645.38
2023-03-27T19:54:08.323Z,99677.78
2023-03-27T19:57:25.394Z,99670.59
2023-03-27T20:00:31.401Z,99682.50
2023-03-27T20:03:47.396Z,99669.50
2023-03-27T20:07:04.130Z,99674.25
2023-03-27T20:10:07.372Z,99704.19
2023-03-27T20:13:25.224Z,99694.13
2023-03-27T20:16:34.969Z,99701.03
2023-03-27T20:19:50.032Z,99703.91
2023-03-27T20:22:58.855Z,99682.94
2023-03-27T20:26:15.029Z,99697.22
2023-03-27T20:29:26.939Z,99721.94
2023-03-27T20:32:43.209Z,99696.78
2023-03-27T20:35:58.607Z,99718.50
2023-03-27T20:39:02.356Z,99720.88
2023-03-27T20:42:18.845Z,99723.72
2023-03-27T20:45:33.862Z,99733.56
2023-03-27T20:48:53.588Z,99735.16
2023-03-27T20:52:02.439Z,99737.75
2023-03-27T20:55:13.343Z,99742.31
2023-03-27T20:58:25.730Z,99750.75
2023-03-27T21:01:41.866Z,99739.12
2023-03-27T21:04:49.853Z,99755.00
2023-03-27T21:08:04.861Z,99739.06
2023-03-27T21:11:15.850Z,99741.72
2023-03-27T21:14:30.904Z,99747.81
2023-03-27T21:17:46.843Z,99756.53
2023-03-27T21:20:56.840Z,99754.63
2023-03-27T21:24:12.846Z,99766.31
2023-03-27T21:27:21.521Z,99742.09
2023-03-27T21:30:47.084Z,99776.91
2023-03-27T21:34:10.880Z,99770.53
2023-03-27T21:37:25.850Z,99781.13
2023-03-27T21:40:36.850Z,99782.09
2023-03-27T21:43:45.493Z,99782.63
2023-03-27T21:46:53.844Z,99791.88
2023-03-27T21:50:02.631Z,99789.72
2023-03-27T21:53:18.851Z,99794.50
2023-03-27T21:56:20.768Z,99772.19
2023-03-27T21:59:35.853Z,99797.09
2023-03-27T22:02:37.967Z,99752.59
2023-03-27T22:06:08.064Z,99808.19
2023-03-27T22:09:22.854Z,99798.41
2023-03-27T22:12:34.086Z,99807.09
2023-03-27T22:15:48.895Z,99802.53
2023-03-27T22:19:04.866Z,99832.53
2023-03-27T22:22:12.843Z,99827.22
2023-03-27T22:25:27.836Z,99818.75
2023-03-27T22:28:30.117Z,99835.66
2023-03-27T22:31:45.852Z,99848.34
2023-03-27T22:34:49.143Z,99838.03
2023-03-27T22:38:03.848Z,99855.22
2023-03-27T22:41:20.856Z,99861.03
2023-03-27T22:44:29.891Z,99852.41
2023-03-27T22:47:44.879Z,99860.50
2023-03-27T22:51:04.814Z,99883.75
2023-03-27T22:54:12.890Z,99890.91
2023-03-27T22:57:21.499Z,99900.97
2023-03-27T23:00:36.023Z,99907.59
2023-03-27T23:03:38.631Z,99904.34
2023-03-27T23:06:53.830Z,99921.53
2023-03-27T23:10:02.586Z,99907.38
2023-03-27T23:13:11.845Z,99924.87
2023-03-27T23:16:33.859Z,99919.56
2023-03-27T23:19:35.729Z,99928.47
2023-03-27T23:22:50.840Z,99934.91
2023-03-27T23:26:06.829Z,99935.31
2023-03-27T23:29:09.498Z,99944.34
2023-03-27T23:32:23.834Z,99963.94
2023-03-27T23:35:32.489Z,99957.03
2023-03-27T23:38:42.099Z,99973.47
2023-03-27T23:41:56.830Z,99967.53
2023-03-27T23:45:04.851Z,99982.53
2023-03-27T23:48:20.849Z,99978.28
2023-03-27T23:51:23.180Z,99992.00
2023-03-27T23:54:37.842Z,99983.44
2023-03-27T23:57:45.842Z,99988.94
